Time;durP1;ratioP1;P1;durP2;ratioP2;P2;SDS_P1;SDS_P2;PMS_P1;PMS_P2;Temp;Humidity;BMP_temperature;BMP_pressure;BME280_temperature;BME280_humidity;BME280_pressure;Samples;Min_cycle;Max_cycle;Signal;HPM_P1;HPM_P2
2023/09/08 00:00:17;;;;;;;15.65;9.18;;;;;;;30.13;67.84;100766.75;4920046;28;70192;-34
2023/09/08 00:02:47;;;;;;;15.77;10.25;;;;;;;30.17;67.12;100783.34;4901160;28;66858;-34
2023/09/08 00:05:17;;;;;;;10.02;8.98;;;;;;;30.08;72.36;100774.69;4916003;28;70042;-36
2023/09/08 00:07:47;;;;;;;8.13;7.43;;;;;;;30.16;69.58;100781.72;4916500;28;66464;-35
2023/09/08 00:10:17;;;;;;;8.23;7.63;;;;;;;29.83;71.85;100732.16;4921133;28;70545;-35
2023/09/08 00:12:47;;;;;;;8.13;7.43;;;;;;;30.27;71.12;100806.22;4919334;28;66622;-34
2023/09/08 00:15:17;;;;;;;7.55;6.93;;;;;;;30.29;72.40;100808.72;4927425;28;71378;-34
2023/09/08 00:17:47;;;;;;;8.23;6.75;;;;;;;30.29;73.74;100811.44;4921132;28;65975;-35
2023/09/08 00:20:17;;;;;;;7.72;7.00;;;;;;;30.39;68.50;100814.47;4911043;28;70376;-34
2023/09/08 00:22:47;;;;;;;12.57;7.65;;;;;;;30.39;71.62;100809.06;4914740;28;66447;-34
2023/09/08 00:25:17;;;;;;;10.65;8.57;;;;;;;30.43;70.76;100804.06;4930778;28;70344;-34
2023/09/08 00:27:47;;;;;;;15.25;8.70;;;;;;;30.47;71.19;100806.06;4928923;28;65584;-34
2023/09/08 00:30:17;;;;;;;12.02;7.78;;;;;;;30.46;70.37;100801.72;4926293;28;70526;-34
2023/09/08 00:32:47;;;;;;;12.90;8.45;;;;;;;30.47;73.29;100810.66;4897902;28;66722;-33
2023/09/08 00:35:18;;;;;;;8.98;8.25;;;;;;;30.36;70.39;100781.59;4928567;28;69253;-34
2023/09/08 00:37:48;;;;;;;10.85;9.80;;;;;;;30.53;73.49;100814.38;4895782;28;66124;-34
2023/09/08 00:40:18;;;;;;;10.60;9.18;;;;;;;30.57;70.79;100821.03;4932394;28;69480;-35
2023/09/08 00:42:48;;;;;;;10.10;9.15;;;;;;;30.50;72.13;100802.09;4925977;28;66822;-34
2023/09/08 00:45:18;;;;;;;12.07;9.25;;;;;;;30.59;73.44;100818.91;4909672;28;69487;-35
2023/09/08 00:47:48;;;;;;;10.02;9.13;;;;;;;30.56;73.58;100813.94;4906339;28;66630;-35
2023/09/08 00:50:18;;;;;;;12.20;9.50;;;;;;;30.62;72.81;100824.72;4909097;28;69084;-34
2023/09/08 00:52:49;;;;;;;11.35;9.55;;;;;;;30.66;72.35;100828.63;4917540;28;66253;-34
2023/09/08 00:55:19;;;;;;;16.30;8.32;;;;;;;30.65;73.29;100835.13;4931198;28;70105;-34
2023/09/08 00:57:49;;;;;;;8.73;7.88;;;;;;;30.60;72.73;100826.00;4904917;28;66356;-34
2023/09/08 01:00:19;;;;;;;7.85;7.13;;;;;;;30.50;74.14;100810.22;4920673;28;69520;-33
2023/09/08 01:02:49;;;;;;;6.43;5.93;;;;;;;30.70;72.00;100843.41;4920967;28;66239;-35
2023/09/08 01:05:20;;;;;;;5.63;5.13;;;;;;;30.69;73.73;100843.63;4919902;28;69500;-34
2023/09/08 01:07:52;;;;;;;5.28;4.57;;;;;;;30.65;73.08;100843.25;4910952;28;66230;-34
2023/09/08 01:10:23;;;;;;;4.40;3.92;;;;;;;30.68;74.26;100844.69;4921611;28;70322;-34
2023/09/08 01:12:53;;;;;;;4.82;3.70;;;;;;;30.72;72.74;100835.06;4902808;28;65984;-33
2023/09/08 01:15:23;;;;;;;3.60;3.35;;;;;;;30.78;70.73;100836.06;4920943;28;69492;-33
2023/09/08 01:17:54;;;;;;;3.20;2.72;;;;;;;30.76;72.13;100840.84;4905543;28;66329;-33
2023/09/08 01:20:47;;;;;;;3.35;2.22;;;;;;;30.41;73.12;100808.84;4889140;28;69591;-33
2023/09/08 01:23:46;;;;;;;2.92;2.60;;;;;;;30.68;73.03;100856.34;4906595;28;66174;-33
2023/09/08 01:26:21;;;;;;;2.13;1.92;;;;;;;30.66;72.43;100838.66;4923799;28;69363;-34
2023/09/08 01:28:53;;;;;;;1.95;1.77;;;;;;;30.45;71.70;100793.81;4895313;28;65912;-32
2023/09/08 01:31:23;;;;;;;1.30;1.20;;;;;;;30.81;70.91;100865.44;4895961;28;69623;-34
2023/09/08 01:33:55;;;;;;;1.65;1.25;;;;;;;30.78;72.06;100861.25;4923229;28;66211;-34
2023/09/08 01:36:25;;;;;;;1.15;1.00;;;;;;;30.84;70.08;100870.41;4904196;28;71884;-34
2023/09/08 01:38:55;;;;;;;1.42;0.90;;;;;;;30.79;71.18;100870.22;4906110;28;66038;-33
2023/09/08 01:41:26;;;;;;;1.23;1.00;;;;;;;30.79;71.77;100868.34;4916704;28;70049;-34
2023/09/08 01:43:57;;;;;;;0.85;0.55;;;;;;;30.87;70.53;100869.97;4910591;28;66816;-33
2023/09/08 01:46:28;;;;;;;1.07;0.77;;;;;;;30.87;70.12;100868.09;4911181;28;69937;-34
2023/09/08 01:48:58;;;;;;;3.13;0.75;;;;;;;30.90;70.30;100875.78;4906186;28;66781;-34
2023/09/08 01:51:28;;;;;;;0.60;0.60;;;;;;;30.89;71.29;100874.09;4887845;28;70052;-34
2023/09/08 01:53:58;;;;;;;1.08;0.60;;;;;;;30.95;70.33;100872.38;4890235;28;66442;-34
2023/09/08 01:56:28;;;;;;;0.73;0.68;;;;;;;30.98;70.45;100871.13;4922538;28;70191;-34
2023/09/08 01:58:59;;;;;;;0.65;0.50;;;;;;;30.99;70.06;100873.63;4903105;28;66692;-35
2023/09/08 02:01:29;;;;;;;0.52;0.40;;;;;;;30.98;69.35;100871.97;4905256;28;70344;-33
2023/09/08 02:03:59;;;;;;;0.52;0.30;;;;;;;31.02;70.06;100888.59;4904635;28;65346;-34
2023/09/08 02:06:29;;;;;;;0.60;0.50;;;;;;;31.00;69.86;100875.28;4904285;28;70907;-34
2023/09/08 02:08:59;;;;;;;0.77;0.40;;;;;;;31.00;70.32;100880.69;4891176;28;66437;-34
2023/09/08 02:11:29;;;;;;;0.40;0.40;;;;;;;30.98;70.04;100882.81;4907631;28;69696;-35
2023/09/08 02:13:59;;;;;;;0.52;0.40;;;;;;;31.02;69.92;100872.34;4889354;28;65775;-36
2023/09/08 02:16:29;;;;;;;0.90;0.50;;;;;;;31.08;69.16;100880.41;4922614;28;70028;-34
2023/09/08 02:18:59;;;;;;;0.80;0.43;;;;;;;31.04;69.88;100868.38;4921969;28;65579;-35
2023/09/08 02:21:29;;;;;;;0.57;0.30;;;;;;;31.12;68.95;100870.81;4895608;28;71241;-34
2023/09/08 02:23:59;;;;;;;0.70;0.35;;;;;;;31.02;69.61;100859.63;4898053;29;65815;-34
2023/09/08 02:26:32;;;;;;;0.55;0.40;;;;;;;31.07;69.69;100857.09;4921499;28;70455;-34
2023/09/08 02:29:02;;;;;;;0.80;0.40;;;;;;;31.18;68.86;100866.38;4920868;28;66764;-34
2023/09/08 02:31:32;;;;;;;1.00;0.40;;;;;;;31.16;69.76;100874.72;4922071;28;70140;-36
2023/09/08 02:34:06;;;;;;;0.47;0.30;;;;;;;31.16;69.90;100874.72;4903621;28;65811;-34
2023/09/08 02:36:37;;;;;;;0.73;0.30;;;;;;;31.23;68.72;100869.25;4917124;28;70379;-35
2023/09/08 02:39:07;;;;;;;0.55;0.40;;;;;;;31.22;69.45;100867.56;4919045;28;66497;-34
2023/09/08 02:41:37;;;;;;;1.08;0.40;;;;;;;31.22;69.27;100870.28;4903521;28;70042;-35
2023/09/08 02:44:07;;;;;;;0.80;0.40;;;;;;;31.21;69.60;100867.81;4892703;28;65300;-34
2023/09/08 02:46:37;;;;;;;0.50;0.30;;;;;;;31.29;68.67;100873.78;4904516;28;70462;-34
2023/09/08 02:49:07;;;;;;;0.30;0.30;;;;;;;31.20;69.37;100864.25;4920727;28;65955;-36
2023/09/08 02:51:39;;;;;;;0.82;0.45;;;;;;;31.29;68.49;100867.53;4904939;28;69263;-34
2023/09/08 02:54:09;;;;;;;0.68;0.32;;;;;;;31.31;69.08;100865.41;4904797;28;65219;-35
2023/09/08 02:56:39;;;;;;;0.85;0.50;;;;;;;31.36;68.83;100858.28;4920311;28;70363;-34
2023/09/08 02:59:10;;;;;;;0.95;0.40;;;;;;;31.35;68.76;100863.91;4904097;28;66083;-35
2023/09/08 03:01:40;;;;;;;0.40;0.38;;;;;;;31.36;68.87;100868.31;4904523;28;70922;-37
2023/09/08 03:04:10;;;;;;;1.30;0.43;;;;;;;31.38;68.50;100867.03;4903242;28;65479;-35
2023/09/08 03:06:40;;;;;;;0.28;0.25;;;;;;;31.39;69.09;100859.72;4904967;28;70437;-36
2023/09/08 03:09:10;;;;;;;0.30;0.30;;;;;;;31.45;68.44;100868.84;4920508;28;65814;-35
2023/09/08 03:11:40;;;;;;;3.47;0.32;;;;;;;31.45;69.07;100866.13;4902040;28;70563;-35
2023/09/08 03:14:11;;;;;;;0.73;0.50;;;;;;;31.51;68.14;100868.78;4903792;28;66516;-34
2023/09/08 03:16:41;;;;;;;0.88;0.30;;;;;;;31.48;68.50;100866.53;4904354;28;69819;-34
2023/09/08 03:19:11;;;;;;;0.47;0.38;;;;;;;31.51;68.18;100866.06;4920358;28;66530;-35
2023/09/08 03:21:41;;;;;;;0.80;0.40;;;;;;;31.53;68.30;100865.84;4903856;28;69918;-35
2023/09/08 03:24:11;;;;;;;0.82;0.50;;;;;;;31.50;68.78;100869.00;4904980;28;66849;-36
2023/09/08 03:26:41;;;;;;;0.63;0.32;;;;;;;31.54;67.97;100868.34;4908640;28;70272;-35
2023/09/08 03:29:11;;;;;;;0.75;0.45;;;;;;;31.46;68.93;100857.78;4922005;28;66466;-34
2023/09/08 03:31:41;;;;;;;0.85;0.50;;;;;;;31.55;68.56;100861.03;4903849;28;70107;-34
2023/09/08 03:34:13;;;;;;;6.43;0.50;;;;;;;31.57;68.07;100857.03;4885159;28;66412;-35
2023/09/08 03:36:44;;;;;;;0.52;0.30;;;;;;;31.55;68.42;100845.56;4925867;28;70255;-35
2023/09/08 03:39:14;;;;;;;0.47;0.32;;;;;;;31.65;68.18;100849.63;4927456;28;65856;-35
2023/09/08 03:41:44;;;;;;;0.57;0.40;;;;;;;31.58;68.13;100831.56;4920466;28;70306;-34
2023/09/08 03:44:14;;;;;;;1.25;0.40;;;;;;;31.60;68.66;100837.59;4921308;28;67262;-35
2023/09/08 03:46:45;;;;;;;0.70;0.50;;;;;;;31.70;68.11;100847.06;4904341;28;70715;-35
2023/09/08 03:49:15;;;;;;;0.47;0.30;;;;;;;31.69;67.78;100846.25;4904082;28;67029;-35
2023/09/08 03:51:46;;;;;;;0.50;0.30;;;;;;;31.68;67.99;100843.75;4888832;28;69918;-35
2023/09/08 03:54:16;;;;;;;0.43;0.35;;;;;;;31.64;67.71;100820.88;4904139;28;65252;-35
2023/09/08 03:56:46;;;;;;;0.90;0.43;;;;;;;31.66;68.21;100816.06;4922356;28;70268;-35
2023/09/08 03:59:16;;;;;;;0.20;0.20;;;;;;;31.74;67.64;100810.34;4908485;28;65807;-35
2023/09/08 04:01:46;;;;;;;0.47;0.30;;;;;;;31.74;67.81;100807.63;4920171;28;70250;-34
2023/09/08 04:04:17;;;;;;;0.25;0.25;;;;;;;31.78;67.68;100804.19;4905895;28;67030;-35
2023/09/08 04:06:47;;;;;;;0.77;0.40;;;;;;;31.79;67.81;100808.59;4912144;28;71520;-34
2023/09/08 04:09:18;;;;;;;0.60;0.40;;;;;;;31.79;67.92;100805.06;4906631;28;66504;-35
2023/09/08 04:11:48;;;;;;;0.70;0.30;;;;;;;31.79;67.51;100796.91;4926651;28;70256;-35
2023/09/08 04:14:18;;;;;;;0.70;0.50;;;;;;;31.82;67.65;100804.59;4912095;28;65461;-35
2023/09/08 04:16:48;;;;;;;0.93;0.40;;;;;;;31.75;67.59;100777.53;4919651;28;70586;-34
2023/09/08 04:19:18;;;;;;;0.60;0.43;;;;;;;31.85;67.88;100787.84;4906600;28;66657;-35
2023/09/08 04:21:48;;;;;;;0.70;0.50;;;;;;;31.80;67.49;100772.25;4927136;28;70091;-34
2023/09/08 04:24:19;;;;;;;0.60;0.30;;;;;;;31.66;67.81;100748.28;4905708;28;65743;-33
2023/09/08 04:26:50;;;;;;;0.87;0.40;;;;;;;31.92;67.35;100775.03;4909252;28;70344;-36
2023/09/08 04:29:20;;;;;;;0.50;0.40;;;;;;;31.95;67.44;100771.88;4922472;28;66863;-35
2023/09/08 04:31:50;;;;;;;0.93;0.50;;;;;;;31.95;67.56;100769.16;4935275;28;69363;-36
2023/09/08 04:34:20;;;;;;;0.73;0.50;;;;;;;32.02;67.31;100752.81;4906137;28;66135;-35
2023/09/08 04:36:51;;;;;;;0.63;0.30;;;;;;;31.97;67.49;100753.50;4910831;28;70291;-35
2023/09/08 04:39:21;;;;;;;0.88;0.40;;;;;;;32.00;67.10;100750.31;4903843;28;65820;-37
2023/09/08 04:41:51;;;;;;;0.50;0.38;;;;;;;32.02;67.16;100744.66;4905225;28;69597;-35
2023/09/08 04:44:21;;;;;;;0.93;0.40;;;;;;;32.05;67.01;100752.34;4930027;28;66013;-34
2023/09/08 04:46:55;;;;;;;0.45;0.22;;;;;;;31.92;67.42;100734.34;4906925;28;69702;-35
2023/09/08 04:49:26;;;;;;;0.93;0.30;;;;;;;31.96;67.38;100732.84;4916354;28;66693;-35
2023/09/08 04:51:57;;;;;;;0.40;0.40;;;;;;;32.07;67.37;100735.81;4918169;28;69684;-36
2023/09/08 04:54:29;;;;;;;0.75;0.40;;;;;;;32.10;66.99;100727.22;4907917;28;66351;-35
2023/09/08 04:56:59;;;;;;;0.52;0.30;;;;;;;32.09;66.90;100714.69;4910339;28;69203;-36
2023/09/08 04:59:49;;;;;;;0.73;0.30;;;;;;;31.96;67.15;100692.16;4923610;28;65998;-35
2023/09/08 05:02:19;;;;;;;0.73;0.20;;;;;;;32.08;67.03;100703.03;4925073;28;70313;-35
2023/09/08 05:04:49;;;;;;;0.40;0.20;;;;;;;32.13;66.96;100694.19;4909162;28;66135;-38
2023/09/08 05:07:20;;;;;;;0.60;0.30;;;;;;;32.08;67.41;100685.94;4908134;28;70635;-37
2023/09/08 05:09:51;;;;;;;0.20;0.20;;;;;;;32.14;66.87;100685.00;4910873;28;66289;-35
2023/09/08 05:12:27;;;;;;;0.30;0.30;;;;;;;32.10;67.12;100673.78;4896275;28;70337;-37
2023/09/08 05:15:05;;;;;;;0.35;0.20;;;;;;;32.03;66.84;100654.88;4911406;28;66154;-35
2023/09/08 05:17:38;;;;;;;0.30;0.22;;;;;;;32.14;66.71;100663.28;4925673;28;69998;-34
2023/09/08 05:20:10;;;;;;;0.30;0.20;;;;;;;32.16;66.79;100661.16;4907671;28;66388;-37
2023/09/08 05:22:40;;;;;;;0.40;0.30;;;;;;;32.16;66.80;100653.03;4925301;28;70047;-35
2023/09/08 05:25:10;;;;;;;0.30;0.20;;;;;;;32.18;66.72;100642.75;4930335;28;66392;-33
2023/09/08 05:27:40;;;;;;;0.70;0.30;;;;;;;32.21;66.40;100636.88;4894040;28;71074;-35
2023/09/08 05:30:11;;;;;;;0.28;0.20;;;;;;;32.20;66.76;100643.34;4895747;28;66068;-35
2023/09/08 05:32:42;;;;;;;0.20;0.20;;;;;;;32.22;66.57;100633.91;4892734;28;69186;-35
2023/09/08 05:35:13;;;;;;;0.50;0.40;;;;;;;32.27;66.39;100625.06;4911432;28;65398;-36
2023/09/08 05:37:44;;;;;;;0.30;0.30;;;;;;;32.26;66.53;100612.53;4924663;28;69125;-34
2023/09/08 05:40:15;;;;;;;0.40;0.22;;;;;;;32.32;66.09;100603.47;4907780;28;66291;-37
2023/09/08 05:42:49;;;;;;;0.35;0.30;;;;;;;32.14;66.35;100568.31;4897156;29;69576;-35
2023/09/08 05:45:19;;;;;;;0.32;0.20;;;;;;;32.28;66.21;100594.13;4919824;28;65273;-33
2023/09/08 05:47:50;;;;;;;1.00;0.30;;;;;;;32.32;66.20;100581.75;4920524;28;70474;-36
2023/09/08 05:50:21;;;;;;;0.52;0.35;;;;;;;32.35;66.34;100569.59;4918254;28;66114;-35
2023/09/08 05:52:52;;;;;;;0.60;0.35;;;;;;;32.39;66.40;100563.44;4883515;28;68991;-35
2023/09/08 05:55:23;;;;;;;0.30;0.30;;;;;;;32.38;66.22;100545.50;4904972;28;66591;-34
2023/09/08 05:57:53;;;;;;;0.52;0.40;;;;;;;32.42;65.84;100551.28;4921506;28;70081;-35
2023/09/08 06:00:24;;;;;;;1.17;0.40;;;;;;;32.46;65.99;100530.78;4887899;29;65938;-36
2023/09/08 06:02:54;;;;;;;0.50;0.30;;;;;;;32.38;65.93;100518.38;4919674;28;70463;-34
2023/09/08 06:05:25;;;;;;;0.35;0.35;;;;;;;32.43;65.52;100507.63;4907592;28;66195;-35
2023/09/08 06:07:55;;;;;;;0.43;0.40;;;;;;;32.44;65.98;100506.53;4922434;28;70375;-35
2023/09/08 06:10:40;;;;;;;0.75;0.50;;;;;;;32.47;65.90;100495.22;4922542;28;65664;-35
2023/09/08 06:13:10;;;;;;;0.68;0.40;;;;;;;32.47;65.74;100489.81;4923219;28;70444;-34
2023/09/08 06:15:42;;;;;;;0.52;0.32;;;;;;;32.52;65.98;100491.81;4912251;28;66772;-35
2023/09/08 06:18:13;;;;;;;1.08;0.50;;;;;;;32.58;65.90;100479.16;4903302;28;70199;-36
2023/09/08 06:20:45;;;;;;;0.77;0.50;;;;;;;32.56;66.00;100470.41;4895436;28;66360;-35
2023/09/08 06:23:16;;;;;;;0.77;0.40;;;;;;;32.60;65.68;100458.03;4903806;28;70420;-34
2023/09/08 06:25:46;;;;;;;0.43;0.40;;;;;;;32.67;65.46;100461.41;4921238;28;66482;-35
2023/09/08 06:28:16;;;;;;;0.80;0.50;;;;;;;32.72;65.49;100464.22;4919536;28;70402;-43
2023/09/08 06:30:46;;;;;;;0.68;0.43;;;;;;;32.74;65.46;100467.53;4921790;28;66526;-35
2023/09/08 06:33:17;;;;;;;1.15;0.50;;;;;;;32.76;65.23;100456.41;4904805;28;69619;-35
2023/09/08 06:35:48;;;;;;;0.98;0.45;;;;;;;32.76;65.26;100454.50;4907099;28;66579;-36
2023/09/08 06:38:18;;;;;;;1.27;0.70;;;;;;;32.78;65.19;100460.53;4919892;28;69744;-36
2023/09/08 06:40:49;;;;;;;1.60;0.60;;;;;;;32.76;65.24;100464.53;4906590;28;66232;-34
2023/09/08 06:43:19;;;;;;;0.70;0.65;;;;;;;32.80;65.05;100474.69;4901281;28;69703;-35
2023/09/08 06:45:55;;;;;;;0.93;0.40;;;;;;;32.82;65.02;100488.00;4909314;28;65747;-34
2023/09/08 06:48:26;;;;;;;1.00;0.50;;;;;;;32.87;65.06;100483.50;4892206;28;68585;-35
2023/09/08 06:50:56;;;;;;;0.55;0.50;;;;;;;32.86;65.08;100460.13;4917306;28;65353;-35
2023/09/08 06:53:27;;;;;;;0.45;0.40;;;;;;;32.85;65.11;100458.50;4905246;28;70209;-36
2023/09/08 06:55:58;;;;;;;0.60;0.40;;;;;;;32.84;65.16;100440.53;4904049;28;65734;-35
2023/09/08 06:58:28;;;;;;;0.45;0.45;;;;;;;32.82;64.73;100431.81;4903562;28;70055;-35
2023/09/08 07:00:59;;;;;;;0.80;0.43;;;;;;;32.78;65.06;100425.22;4898503;28;66400;-36
2023/09/08 07:03:36;;;;;;;0.65;0.40;;;;;;;32.86;65.13;100443.00;4905270;28;69674;-35
2023/09/08 07:06:10;;;;;;;0.70;0.50;;;;;;;32.86;65.26;100443.84;4903975;28;65642;-34
2023/09/08 07:08:40;;;;;;;0.90;0.38;;;;;;;32.90;65.12;100444.16;4904416;28;69366;-35
2023/09/08 07:11:10;;;;;;;0.57;0.40;;;;;;;32.94;64.92;100448.06;4904184;28;66032;-34
2023/09/08 07:13:42;;;;;;;0.30;0.30;;;;;;;32.88;65.00;100433.56;4919285;28;68926;-35
2023/09/08 07:16:12;;;;;;;0.77;0.40;;;;;;;32.96;64.98;100426.06;4910274;28;66597;-34
2023/09/08 07:18:43;;;;;;;0.57;0.30;;;;;;;32.93;64.97;100433.66;4897293;28;69564;-34
2023/09/08 07:21:14;;;;;;;0.68;0.40;;;;;;;32.92;65.10;100421.13;4872773;29;66123;-35
2023/09/08 07:23:44;;;;;;;0.50;0.38;;;;;;;32.87;64.97;100418.31;4922777;28;70112;-36
2023/09/08 07:26:16;;;;;;;0.65;0.50;;;;;;;32.85;65.28;100401.44;4911098;28;65755;-36
2023/09/08 07:28:47;;;;;;;0.55;0.47;;;;;;;32.89;65.32;100393.63;4913598;28;70260;-34
2023/09/08 07:31:17;;;;;;;0.52;0.32;;;;;;;32.81;65.37;100386.69;4920261;28;66082;-35
2023/09/08 07:33:50;;;;;;;0.70;0.43;;;;;;;32.86;65.39;100397.66;4899635;28;70162;-35
2023/09/08 07:36:21;;;;;;;0.47;0.43;;;;;;;32.88;65.45;100392.81;4904761;28;65925;-35
2023/09/08 07:38:51;;;;;;;0.50;0.40;;;;;;;32.89;65.34;100370.00;4899677;28;69674;-34
2023/09/08 07:41:21;;;;;;;0.70;0.47;;;;;;;32.85;65.44;100370.75;4913024;28;66731;-34
2023/09/08 07:43:51;;;;;;;0.80;0.60;;;;;;;32.87;65.62;100377.56;4894178;28;70271;-34
2023/09/08 07:46:25;;;;;;;0.45;0.43;;;;;;;32.88;65.51;100379.22;4903770;28;65485;-34
2023/09/08 07:48:55;;;;;;;0.75;0.50;;;;;;;32.54;66.05;100364.78;4918263;28;69610;-35
2023/09/08 07:51:26;;;;;;;0.82;0.70;;;;;;;32.73;66.37;100422.41;4911225;28;66269;-35
2023/09/08 07:53:56;;;;;;;1.38;0.63;;;;;;;32.75;66.62;100461.00;4912459;28;69854;-34
2023/09/08 07:56:26;;;;;;;1.40;0.75;;;;;;;32.80;66.29;100450.25;4920380;28;65857;-35
2023/09/08 07:58:57;;;;;;;1.55;1.05;;;;;;;32.75;66.55;100442.00;4922689;28;69437;-35
2023/09/08 08:01:27;;;;;;;1.25;0.80;;;;;;;32.75;66.31;100442.00;4905063;28;66566;-35
2023/09/08 08:03:57;;;;;;;1.35;0.88;;;;;;;32.72;66.48;100432.44;4916916;28;69841;-35
2023/09/08 08:06:27;;;;;;;0.85;0.60;;;;;;;32.66;67.45;100433.41;4891226;28;66167;-34
2023/09/08 08:08:58;;;;;;;0.93;0.70;;;;;;;32.70;66.72;100412.03;4915999;28;70003;-35
2023/09/08 08:11:30;;;;;;;1.15;0.63;;;;;;;32.62;67.43;100407.00;4891859;28;66205;-35
2023/09/08 08:14:01;;;;;;;1.25;1.13;;;;;;;32.60;67.20;100406.44;4918424;28;70751;-34
2023/09/08 08:16:31;;;;;;;1.23;0.60;;;;;;;32.61;67.07;100402.63;4893527;28;65684;-34
2023/09/08 08:19:01;;;;;;;2.17;0.60;;;;;;;32.57;67.46;100391.44;4916910;28;70264;-34
2023/09/08 08:21:31;;;;;;;0.40;0.40;;;;;;;32.57;67.38;100390.59;4916329;28;66662;-34
2023/09/08 08:24:01;;;;;;;0.60;0.40;;;;;;;32.58;67.00;100397.69;4917670;28;68588;-34
2023/09/08 08:26:32;;;;;;;0.60;0.43;;;;;;;32.54;67.17;100396.53;4929962;28;66376;-34
2023/09/08 08:29:03;;;;;;;0.50;0.40;;;;;;;32.45;67.77;100383.31;4920108;28;69280;-35
2023/09/08 08:31:33;;;;;;;0.60;0.40;;;;;;;32.40;67.27;100380.50;4920832;28;66667;-35
2023/09/08 08:34:03;;;;;;;0.52;0.38;;;;;;;32.41;68.23;100382.16;4915898;28;70037;-35
2023/09/08 08:36:34;;;;;;;0.65;0.40;;;;;;;32.44;67.60;100378.94;4918125;28;65554;-35
2023/09/08 08:39:05;;;;;;;3.25;0.30;;;;;;;32.45;67.59;100377.88;4908795;28;69984;-35
2023/09/08 08:41:39;;;;;;;0.38;0.30;;;;;;;32.42;67.46;100383.78;4923224;28;65296;-35
2023/09/08 08:44:09;;;;;;;1.15;0.40;;;;;;;32.39;67.79;100376.13;4919991;28;69984;-36
2023/09/08 08:46:41;;;;;;;0.52;0.30;;;;;;;32.35;68.78;100379.59;4928044;28;65679;-34
2023/09/08 08:49:16;;;;;;;0.70;0.30;;;;;;;32.29;68.09;100362.38;4915794;28;70056;-35
2023/09/08 08:51:48;;;;;;;0.70;0.40;;;;;;;32.10;67.81;100331.91;4916172;28;66345;-35
2023/09/08 08:54:18;;;;;;;0.50;0.38;;;;;;;32.35;67.92;100361.41;4916957;28;70241;-33
2023/09/08 08:56:49;;;;;;;0.57;0.30;;;;;;;32.30;68.20;100342.31;4911077;28;65186;-35
2023/09/08 08:59:19;;;;;;;0.30;0.28;;;;;;;32.27;68.19;100342.81;4923108;28;69956;-35
2023/09/08 09:01:50;;;;;;;0.40;0.40;;;;;;;32.29;68.17;100351.53;4919802;28;65336;-34
2023/09/08 09:04:20;;;;;;;0.45;0.40;;;;;;;32.24;68.42;100349.53;4928021;28;69522;-34
2023/09/08 09:06:51;;;;;;;0.73;0.60;;;;;;;32.18;69.10;100350.50;4916299;28;65693;-34
2023/09/08 09:09:21;;;;;;;0.70;0.50;;;;;;;32.20;68.61;100363.81;4922545;28;69819;-34
2023/09/08 09:11:52;;;;;;;0.63;0.60;;;;;;;32.18;69.32;100371.38;4921361;28;66070;-36
2023/09/08 09:14:23;;;;;;;0.60;0.60;;;;;;;32.15;69.07;100380.84;4922503;28;69994;-35
2023/09/08 09:16:56;;;;;;;0.50;0.50;;;;;;;32.18;69.14;100399.34;4917897;28;66802;-35
2023/09/08 09:19:31;;;;;;;1.10;0.50;;;;;;;32.13;69.32;100390.28;4913840;28;69870;-35
2023/09/08 09:22:03;;;;;;;0.98;0.63;;;;;;;32.10;69.51;100379.91;4922543;28;66343;-35
2023/09/08 09:24:43;;;;;;;0.70;0.57;;;;;;;31.81;69.50;100339.13;4922988;28;69936;-35
2023/09/08 09:27:13;;;;;;;0.60;0.60;;;;;;;32.04;69.40;100387.13;4922022;28;65704;-36
2023/09/08 09:29:51;;;;;;;0.40;0.35;;;;;;;31.95;69.47;100389.38;4927518;28;70138;-34
2023/09/08 09:32:25;;;;;;;0.45;0.40;;;;;;;31.75;69.17;100383.50;4921252;28;66263;-34
2023/09/08 09:34:56;;;;;;;1.42;0.80;;;;;;;31.98;70.20;100454.03;4926849;28;69651;-34
2023/09/08 09:37:27;;;;;;;1.00;0.90;;;;;;;32.01;70.38;100496.94;4912083;28;66358;-35
2023/09/08 09:39:57;;;;;;;2.60;2.13;;;;;;;31.94;71.77;100504.38;4921630;28;70151;-35
2023/09/08 09:42:28;;;;;;;5.68;3.67;;;;;;;31.59;74.79;100460.94;4918869;28;64643;-36
2023/09/08 09:45:01;;;;;;;4.43;3.88;;;;;;;31.96;74.10;100532.09;4931949;28;69124;-35
2023/09/08 09:47:32;;;;;;;5.10;4.70;;;;;;;31.92;75.96;100590.59;4913722;28;66386;-35
2023/09/08 09:50:03;;;;;;;6.50;4.40;;;;;;;31.90;74.70;100598.13;4909623;28;69767;-35
2023/09/08 09:52:39;;;;;;;5.70;5.20;;;;;;;31.55;76.04;100569.03;4914960;28;65631;-35
2023/09/08 09:55:10;;;;;;;4.63;4.22;;;;;;;31.88;75.35;100626.53;4895659;28;70676;-35
2023/09/08 09:57:40;;;;;;;4.18;3.85;;;;;;;31.81;76.30;100637.47;4927808;28;66083;-35
2023/09/08 10:00:11;;;;;;;4.80;3.70;;;;;;;31.81;75.44;100632.03;4925092;28;70232;-36
2023/09/08 10:02:42;;;;;;;3.00;2.65;;;;;;;31.76;76.10;100667.16;4910209;28;66568;-36
2023/09/08 10:05:13;;;;;;;3.33;2.83;;;;;;;31.75;75.83;100687.22;4931588;28;70111;-34
2023/09/08 10:07:46;;;;;;;3.42;3.13;;;;;;;31.67;75.76;100701.09;4925610;28;65546;-35
2023/09/08 10:10:17;;;;;;;2.45;1.98;;;;;;;31.91;72.97;100740.84;4921124;28;69965;-37
2023/09/08 10:16:19;;;;;;;2.55;1.70;;;;;;;31.98;72.43;100735.31;4913408;28;69635;-36
2023/09/08 10:18:52;;;;;;;1.58;1.30;;;;;;;32.03;72.25;100722.72;4917335;28;66077;-35
2023/09/08 10:21:26;;;;;;;3.75;2.08;;;;;;;31.74;71.89;100659.28;4930394;28;69559;-37
2023/09/08 10:24:13;;;;;;;2.15;1.85;;;;;;;31.99;72.80;100682.72;4921074;28;66199;-35
2023/09/08 10:26:47;;;;;;;1.65;1.48;;;;;;;32.06;71.86;100678.00;4925960;28;69453;-36
2023/09/08 10:29:18;;;;;;;1.90;1.48;;;;;;;32.07;71.77;100678.81;4924613;28;65593;-35
2023/09/08 10:31:49;;;;;;;;;;;;;;;31.72;73.64;100672.22;4915941;28;70127;-35
2023/09/08 10:34:19;;;;;;;1.70;1.30;;;;;;;31.94;71.97;100640.00;4913770;28;66224;-35
2023/09/08 10:36:49;;;;;;;1.50;0.90;;;;;;;32.02;71.70;100655.13;4912094;28;69587;-36
2023/09/08 10:39:38;;;;;;;2.75;1.30;;;;;;;31.88;72.25;100651.78;4916334;28;66328;-35
2023/09/08 10:42:19;;;;;;;0.90;0.73;;;;;;;31.95;72.01;100666.06;4905438;28;70063;-35
2023/09/08 10:44:50;;;;;;;1.20;0.93;;;;;;;31.96;71.79;100673.16;4913334;28;65351;-37
2023/09/08 10:47:23;;;;;;;4.57;1.77;;;;;;;31.96;71.81;100672.34;4910632;28;70312;-35
2023/09/08 10:49:57;;;;;;;3.38;3.17;;;;;;;31.91;71.68;100681.16;4902639;28;66283;-35
2023/09/08 10:52:29;;;;;;;4.28;3.30;;;;;;;31.92;71.84;100690.94;4917762;28;70207;-36
2023/09/08 10:54:59;;;;;;;4.03;3.65;;;;;;;31.89;71.94;100693.28;4915248;28;66274;-35
2023/09/08 10:57:31;;;;;;;4.43;4.03;;;;;;;31.91;72.17;100705.59;4932813;28;70367;-35
2023/09/08 11:00:11;;;;;;;6.30;3.90;;;;;;;31.89;72.47;100704.94;4905963;28;65369;-35
2023/09/08 11:02:48;;;;;;;3.67;3.38;;;;;;;31.59;72.41;100648.88;4904298;28;70238;-36
2023/09/08 11:05:20;;;;;;;4.30;3.90;;;;;;;31.85;72.42;100671.22;4903531;28;65401;-36
2023/09/08 11:07:52;;;;;;;4.50;2.88;;;;;;;31.82;72.62;100666.25;4911302;28;69576;-36
2023/09/08 11:10:22;;;;;;;3.60;2.78;;;;;;;31.80;72.38;100662.94;4911204;28;65347;-36
2023/09/08 11:12:54;;;;;;;3.10;2.78;;;;;;;31.80;72.68;100668.38;4899444;28;70219;-35
2023/09/08 11:15:24;;;;;;;3.08;2.08;;;;;;;31.73;72.81;100675.78;4926575;28;65981;-36
2023/09/08 11:17:54;;;;;;;2.80;2.08;;;;;;;31.76;72.74;100683.44;4921702;28;69762;-36
2023/09/08 11:20:27;;;;;;;2.55;2.35;;;;;;;31.58;74.95;100682.44;4918557;28;66301;-35
2023/09/08 11:22:58;;;;;;;3.92;2.83;;;;;;;31.45;77.20;100690.75;4892828;28;69523;-37
2023/09/08 11:25:29;;;;;;;3.03;2.83;;;;;;;31.41;78.15;100713.97;4894265;28;65436;-36
2023/09/08 11:28:00;;;;;;;2.90;2.70;;;;;;;31.31;78.66;100719.88;4916775;28;70226;-39
2023/09/08 11:30:30;;;;;;;3.17;2.78;;;;;;;31.25;79.10;100725.38;4899446;28;65428;-35
2023/09/08 11:33:02;;;;;;;3.00;2.80;;;;;;;31.21;79.66;100745.88;4916479;28;70129;-37
2023/09/08 11:35:35;;;;;;;3.38;3.08;;;;;;;31.19;79.99;100756.09;4903217;28;66365;-36
2023/09/08 11:38:09;;;;;;;2.92;2.72;;;;;;;31.16;79.75;100770.94;4894501;28;69203;-38
2023/09/08 11:40:41;;;;;;;3.88;3.50;;;;;;;31.12;80.30;100770.56;4927149;28;65831;-37
2023/09/08 11:43:12;;;;;;;3.78;3.47;;;;;;;31.09;80.09;100781.00;4907613;28;70033;-36
2023/09/08 11:45:43;;;;;;;3.63;3.33;;;;;;;30.95;80.47;100769.47;4918687;28;65739;-38